Terminal Aerodrome Forecast
Issued by NWS

Home | Current Version | Previous Version | Text Only | Print | Product List | Glossary On
Versions: 1 2 3 4 5 6 7 8 9 10 11 12
000
FTUS42 TJSJ 022349
TAFISX
TAF
TISX 022349Z 0300/0324 09012KT P6SM SCT021 SCT035
      TEMPO 0300/0303 09014G25KT SHRA BKN030
     FM031300 11018G23KT P6SM VCSH SCT025 SCT035
     FM032300 08012KT P6SM FEW030 SCT060=

USA.gov is the U.S. government's official web portal to all federal, state and local government web resources and services.